createdAt,value
2018-06-07T00:00:59.383Z,49.19
2018-06-07T00:02:08.536Z,49.19
2018-06-07T00:03:18.197Z,49.1
2018-06-07T00:04:28.133Z,49
2018-06-07T00:05:37.564Z,49.1
2018-06-07T00:06:46.990Z,49.19
2018-06-07T00:07:56.198Z,49.1
2018-06-07T00:09:05.892Z,49.1
2018-06-07T00:10:15.583Z,49.1
2018-06-07T00:11:25.033Z,49.1
2018-06-07T00:12:34.950Z,49.1
2018-06-07T00:13:44.674Z,49
2018-06-07T00:14:54.118Z,49
2018-06-07T00:16:03.066Z,49.1
2018-06-07T00:17:12.242Z,48.9
2018-06-07T00:18:21.961Z,48.9
2018-06-07T00:19:31.395Z,49.19
2018-06-07T00:20:41.094Z,48.8
2018-06-07T00:21:50.511Z,49.29
2018-06-07T00:23:00.216Z,49.29
2018-06-07T00:24:09.113Z,49.19
2018-06-07T00:25:18.027Z,49
2018-06-07T00:26:27.446Z,49.19
2018-06-07T00:27:37.424Z,49.1
2018-06-07T00:28:46.842Z,49.1
2018-06-07T00:29:56.000Z,49.39
2018-06-07T00:31:05.173Z,49.1
2018-06-07T00:32:14.840Z,49.1
2018-06-07T00:33:23.730Z,49.1
2018-06-07T00:34:33.139Z,49.19
2018-06-07T00:35:42.793Z,49.1
2018-06-07T00:36:52.214Z,49.39
2018-06-07T00:38:01.885Z,49.1
2018-06-07T00:39:10.565Z,49.39
2018-06-07T00:40:20.314Z,49.39
2018-06-07T00:41:29.476Z,49.19
2018-06-07T00:42:39.401Z,49.19
2018-06-07T00:43:48.816Z,49
2018-06-07T00:44:58.243Z,49
2018-06-07T00:46:07.132Z,49.1
2018-06-07T00:47:16.820Z,49.19
2018-06-07T00:48:25.727Z,49
2018-06-07T00:49:35.134Z,49.19
2018-06-07T00:50:45.076Z,49.39
2018-06-07T00:51:54.248Z,49.19
2018-06-07T00:53:03.391Z,49.29
2018-06-07T00:54:13.077Z,49
2018-06-07T00:55:22.506Z,49
2018-06-07T00:56:31.946Z,49.19
2018-06-07T00:57:41.380Z,49.19
2018-06-07T00:58:51.046Z,49.19
2018-06-07T01:00:00.473Z,49.1
2018-06-07T01:01:09.902Z,49.39
2018-06-07T01:02:19.321Z,49.19
2018-06-07T01:03:29.011Z,48.9
2018-06-07T01:04:38.424Z,49.39
2018-06-07T01:05:47.583Z,49.39
2018-06-07T01:06:56.806Z,49.46
2018-06-07T01:08:05.947Z,49.58
2018-06-07T01:09:15.102Z,49.27
2018-06-07T01:10:24.772Z,49.49
2018-06-07T01:11:34.211Z,49.49
2018-06-07T01:12:43.649Z,49.39
2018-06-07T01:13:52.806Z,49.37
2018-06-07T01:15:01.962Z,49.49
2018-06-07T01:16:11.384Z,49.27
2018-06-07T01:17:21.065Z,49.39
2018-06-07T01:18:30.227Z,49.49
2018-06-07T01:19:39.389Z,49.39
2018-06-07T01:20:48.548Z,49.37
2018-06-07T01:21:58.239Z,49.39
2018-06-07T01:23:07.646Z,49.29
2018-06-07T01:24:16.813Z,49.58
2018-06-07T01:25:26.483Z,49.27
2018-06-07T01:26:35.629Z,49.29
2018-06-07T01:27:44.530Z,49.46
2018-06-07T01:28:53.421Z,49.27
2018-06-07T01:30:02.825Z,49.39
2018-06-07T01:31:11.729Z,49.39
2018-06-07T01:32:20.888Z,49.27
2018-06-07T01:33:30.290Z,49.68
2018-06-07T01:34:39.498Z,49.37
2018-06-07T01:35:49.169Z,49.19
2018-06-07T01:36:58.837Z,49.68
2018-06-07T01:38:07.983Z,49.37
2018-06-07T01:39:17.401Z,49.27
2018-06-07T01:40:27.082Z,49.37
2018-06-07T01:41:36.765Z,49.37
2018-06-07T01:42:46.181Z,49.66
2018-06-07T01:43:55.591Z,49.66
2018-06-07T01:45:05.035Z,49.66
2018-06-07T01:46:14.447Z,49.46
2018-06-07T01:47:23.610Z,49.46
2018-06-07T01:48:32.771Z,49.85
2018-06-07T01:49:41.983Z,49.97
2018-06-07T01:50:50.873Z,49.85
2018-06-07T01:52:00.801Z,49.87
2018-06-07T01:53:09.695Z,49.87
2018-06-07T01:54:18.867Z,49.49
2018-06-07T01:55:28.269Z,49.85
2018-06-07T01:56:37.926Z,49.95
2018-06-07T01:57:47.348Z,49.97
2018-06-07T01:58:56.254Z,49.75
2018-06-07T02:00:05.673Z,49.87
2018-06-07T02:01:15.080Z,49.75
2018-06-07T02:02:24.765Z,49.85
2018-06-07T02:03:33.926Z,49.85
2018-06-07T02:04:43.081Z,49.85
2018-06-07T02:05:52.503Z,49.85
2018-06-07T02:07:02.162Z,49.85
2018-06-07T02:08:11.309Z,49.75
2018-06-07T02:09:20.716Z,49.75
2018-06-07T02:10:29.600Z,49.85
2018-06-07T02:11:39.015Z,49.85
2018-06-07T02:12:48.688Z,49.75
2018-06-07T02:13:58.352Z,49.56
2018-06-07T02:15:07.543Z,49.75
2018-06-07T02:16:16.717Z,49.56
2018-06-07T02:17:26.395Z,49.75
2018-06-07T02:18:36.058Z,49.66
2018-06-07T02:19:45.461Z,49.85
2018-06-07T02:20:54.870Z,50.04
2018-06-07T02:22:03.778Z,50.14
2018-06-07T02:23:13.459Z,50.24
2018-06-07T02:24:22.606Z,50.24
2018-06-07T02:25:31.753Z,50.24
2018-06-07T02:26:41.422Z,50.14
2018-06-07T02:27:51.089Z,50.34
2018-06-07T02:29:00.753Z,50.04
2018-06-07T02:30:10.431Z,50.24
2018-06-07T02:31:20.112Z,50.24
2018-06-07T02:32:29.802Z,50.24
2018-06-07T02:33:39.489Z,50.24
2018-06-07T02:34:49.171Z,49.95
2018-06-07T02:35:59.117Z,49.95
2018-06-07T02:37:08.542Z,50.04
2018-06-07T02:38:18.208Z,49.85
2018-06-07T02:39:27.421Z,49.85
2018-06-07T02:40:36.846Z,50.04
2018-06-07T02:41:46.014Z,49.95
2018-06-07T02:42:55.695Z,50.04
2018-06-07T02:44:05.137Z,50.04
2018-06-07T02:45:15.107Z,49.95
2018-06-07T02:46:24.013Z,49.85
2018-06-07T02:47:33.673Z,50.04
2018-06-07T02:48:43.074Z,50.04
2018-06-07T02:49:52.737Z,50.24
2018-06-07T02:51:01.374Z,50.04
2018-06-07T02:52:10.787Z,50.04
2018-06-07T02:53:20.269Z,50.04
2018-06-07T02:54:29.688Z,49.85
2018-06-07T02:55:39.611Z,50.04
2018-06-07T02:56:49.082Z,49.95
2018-06-07T02:57:58.760Z,49.95
2018-06-07T02:59:07.652Z,50.04
2018-06-07T03:00:17.311Z,49.85
2018-06-07T03:01:26.481Z,49.75
2018-06-07T03:02:36.193Z,49.66
2018-06-07T03:03:45.615Z,50.04
2018-06-07T03:04:54.769Z,50.04
2018-06-07T03:06:04.696Z,49.66
2018-06-07T03:07:14.356Z,49.95
2018-06-07T03:08:23.758Z,49.85
2018-06-07T03:09:33.419Z,49.75
2018-06-07T03:10:42.840Z,50.04
2018-06-07T03:11:52.502Z,50.04
2018-06-07T03:13:01.962Z,50.04
2018-06-07T03:14:11.365Z,50.14
2018-06-07T03:15:20.001Z,50.14
2018-06-07T03:16:29.152Z,50.43
2018-06-07T03:17:38.566Z,50.24
2018-06-07T03:18:48.227Z,50.04
2018-06-07T03:19:57.376Z,49.85
2018-06-07T03:21:06.804Z,50.53
2018-06-07T03:22:16.489Z,50.14
2018-06-07T03:23:26.410Z,50.53
2018-06-07T03:24:36.077Z,50.14
2018-06-07T03:25:45.481Z,50.24
2018-06-07T03:26:54.631Z,50.04
2018-06-07T03:28:04.050Z,49.95
2018-06-07T03:29:13.460Z,50.43
2018-06-07T03:30:23.203Z,50.53
2018-06-07T03:31:32.992Z,50.53
2018-06-07T03:32:42.879Z,50.24
2018-06-07T03:33:52.561Z,50.14
2018-06-07T03:35:02.488Z,49.95
2018-06-07T03:36:11.648Z,50.53
2018-06-07T03:37:21.300Z,50.14
2018-06-07T03:38:30.709Z,49.95
2018-06-07T03:39:40.127Z,50.14
2018-06-07T03:40:49.541Z,50.24
2018-06-07T03:41:58.189Z,50.43
2018-06-07T03:43:07.340Z,50.04
2018-06-07T03:44:17.022Z,50.24
2018-06-07T03:45:26.165Z,50.04
2018-06-07T03:46:35.062Z,50.04
2018-06-07T03:47:44.471Z,50.14
2018-06-07T03:48:53.119Z,50.04
2018-06-07T03:50:02.521Z,50.14
2018-06-07T03:51:11.709Z,50.14
2018-06-07T03:52:21.633Z,50.14
2018-06-07T03:53:31.617Z,50.14
2018-06-07T03:54:41.037Z,50.53
2018-06-07T03:55:49.941Z,50.53
2018-06-07T03:56:59.630Z,50.04
2018-06-07T03:58:09.306Z,49.85
2018-06-07T03:59:18.771Z,50.43
2018-06-07T04:00:27.946Z,50.14
2018-06-07T04:01:37.352Z,50.53
2018-06-07T04:02:46.509Z,50.43
2018-06-07T04:03:55.677Z,50.43
2018-06-07T04:05:05.107Z,49.95
2018-06-07T04:06:14.370Z,50.53
2018-06-07T04:07:23.904Z,50.24
2018-06-07T04:08:32.815Z,50.53
2018-06-07T04:09:42.252Z,50.53
2018-06-07T04:10:51.676Z,50.04
2018-06-07T04:12:01.098Z,50.43
2018-06-07T04:13:10.274Z,49.95
2018-06-07T04:14:20.205Z,50.43
2018-06-07T04:15:29.367Z,50.43
2018-06-07T04:16:38.542Z,50.53
2018-06-07T04:17:47.956Z,50.24
2018-06-07T04:18:57.364Z,50.14
2018-06-07T04:20:06.540Z,50.43
2018-06-07T04:21:15.961Z,50.14
2018-06-07T04:22:25.376Z,50.24
2018-06-07T04:23:34.820Z,50.43
2018-06-07T04:24:44.492Z,50.14
2018-06-07T04:25:53.915Z,50.14
2018-06-07T04:27:03.595Z,50.14
2018-06-07T04:28:13.020Z,50.53
2018-06-07T04:29:22.676Z,50.24
2018-06-07T04:30:32.125Z,50.24
2018-06-07T04:31:41.786Z,50.34
2018-06-07T04:32:51.476Z,50.34
2018-06-07T04:34:00.673Z,50.34
2018-06-07T04:35:10.339Z,50.43
2018-06-07T04:36:20.055Z,50.43
2018-06-07T04:37:29.723Z,50.43
2018-06-07T04:38:38.899Z,50.14
2018-06-07T04:39:48.324Z,50.34
2018-06-07T04:40:57.488Z,50.34
2018-06-07T04:42:06.922Z,50.24
2018-06-07T04:43:16.350Z,50.24
2018-06-07T04:44:26.063Z,50.14
2018-06-07T04:45:35.468Z,50.24
2018-06-07T04:46:45.141Z,50.34
2018-06-07T04:47:54.800Z,50.14
2018-06-07T04:49:03.716Z,50.43
2018-06-07T04:50:13.146Z,50.43
2018-06-07T04:51:22.832Z,50.43
2018-06-07T04:52:32.077Z,50.43
2018-06-07T04:53:41.484Z,50.43
2018-06-07T04:54:50.889Z,50.43
2018-06-07T04:56:00.106Z,50.43
2018-06-07T04:57:09.787Z,50.43
2018-06-07T04:58:19.199Z,50.34
2018-06-07T04:59:28.618Z,50.34
2018-06-07T05:00:37.891Z,50.34
2018-06-07T05:01:47.737Z,50.24
2018-06-07T05:02:57.138Z,50.43
2018-06-07T05:04:05.789Z,50.24
2018-06-07T05:05:15.456Z,50.53
2018-06-07T05:06:24.662Z,49.95
2018-06-07T05:07:34.072Z,50.53
2018-06-07T05:08:43.227Z,50.14
2018-06-07T05:09:52.986Z,50.04
2018-06-07T05:11:02.415Z,50.14
2018-06-07T05:12:12.075Z,50.24
2018-06-07T05:13:21.822Z,50.04
2018-06-07T05:14:30.981Z,50.04
2018-06-07T05:15:40.696Z,49.95
2018-06-07T05:16:50.634Z,50.04
2018-06-07T05:17:59.788Z,50.04
2018-06-07T05:19:08.952Z,50.04
2018-06-07T05:20:18.379Z,50.07
2018-06-07T05:21:27.550Z,49.87
2018-06-07T05:22:37.489Z,50.07
2018-06-07T05:23:47.151Z,49.95
2018-06-07T05:24:56.626Z,50.04
2018-06-07T05:26:05.869Z,49.95
2018-06-07T05:27:15.533Z,49.95
2018-06-07T05:28:24.938Z,49.97
2018-06-07T05:29:34.339Z,50.07
2018-06-07T05:30:44.004Z,49.95
2018-06-07T05:31:53.679Z,50.04
2018-06-07T05:33:03.722Z,50.14
2018-06-07T05:34:12.887Z,50.04
2018-06-07T05:35:22.577Z,50.07
2018-06-07T05:36:31.731Z,50.04
2018-06-07T05:37:41.153Z,50.04
2018-06-07T05:38:50.918Z,49.95
2018-06-07T05:40:00.390Z,50.04
2018-06-07T05:41:09.798Z,50.07
2018-06-07T05:42:19.471Z,50.04
2018-06-07T05:43:29.155Z,49.95
2018-06-07T05:44:38.316Z,49.95
2018-06-07T05:45:47.737Z,50.04
2018-06-07T05:46:56.910Z,49.85
2018-06-07T05:48:06.494Z,50.04
2018-06-07T05:49:15.412Z,50.04
2018-06-07T05:50:24.837Z,49.97
2018-06-07T05:51:34.792Z,49.95
2018-06-07T05:52:44.946Z,49.97
2018-06-07T05:53:54.373Z,49.75
2018-06-07T05:55:03.784Z,49.97
2018-06-07T05:56:13.834Z,49.66
2018-06-07T05:57:23.509Z,49.97
2018-06-07T05:58:32.702Z,50.16
2018-06-07T05:59:42.202Z,49.68
2018-06-07T06:00:51.505Z,50.07
2018-06-07T06:02:01.252Z,49.95
2018-06-07T06:03:10.779Z,49.77
2018-06-07T06:04:20.594Z,49.97
2018-06-07T06:05:30.100Z,49.75
2018-06-07T06:06:39.637Z,49.97
2018-06-07T06:07:49.325Z,50.07
2018-06-07T06:08:59.007Z,50.07
2018-06-07T06:10:08.157Z,50.07
2018-06-07T06:11:17.333Z,49.97
2018-06-07T06:12:27.491Z,50.16
2018-06-07T06:13:36.647Z,50.07
2018-06-07T06:14:46.339Z,50.07
2018-06-07T06:15:55.500Z,50.16
2018-06-07T06:17:04.940Z,50.16
2018-06-07T06:18:14.623Z,50.07
2018-06-07T06:19:24.036Z,50.16
2018-06-07T06:20:33.754Z,50.26
2018-06-07T06:21:43.456Z,49.97
2018-06-07T06:22:53.243Z,49.97
2018-06-07T06:24:03.226Z,50.26
2018-06-07T06:25:12.937Z,50.56
2018-06-07T06:26:22.664Z,49.97
2018-06-07T06:27:31.827Z,50.26
2018-06-07T06:28:41.526Z,50.56
2018-06-07T06:29:51.207Z,50.36
2018-06-07T06:31:00.158Z,50.16
2018-06-07T06:32:09.847Z,50.46
2018-06-07T06:33:19.334Z,50.46
2018-06-07T06:34:29.100Z,50.46
2018-06-07T06:35:38.301Z,50.46
2018-06-07T06:36:47.737Z,50.46
2018-06-07T06:37:57.165Z,50.36
2018-06-07T06:39:07.393Z,50.36
2018-06-07T06:40:16.904Z,50.56
2018-06-07T06:41:26.597Z,50.46
2018-06-07T06:42:36.549Z,50.36
2018-06-07T06:43:46.020Z,50.46
2018-06-07T06:44:55.185Z,50.36
2018-06-07T06:46:04.105Z,50.46
2018-06-07T06:47:13.033Z,50.46
2018-06-07T06:48:22.462Z,50.36
2018-06-07T06:49:32.281Z,50.26
2018-06-07T06:50:42.249Z,50.26
2018-06-07T06:51:51.442Z,50.26
2018-06-07T06:53:00.143Z,50.26
2018-06-07T06:54:09.604Z,50.36
2018-06-07T06:55:19.313Z,50.26
2018-06-07T06:56:28.483Z,50.36
2018-06-07T06:57:38.435Z,50.26
2018-06-07T06:58:47.857Z,50.26
2018-06-07T06:59:57.788Z,50.26
2018-06-07T07:01:07.745Z,50.36
2018-06-07T07:02:16.928Z,50.16
2018-06-07T07:03:26.357Z,50.36
2018-06-07T07:04:35.765Z,50.26
2018-06-07T07:05:44.938Z,50.26
2018-06-07T07:06:54.691Z,50.26
2018-06-07T07:08:03.869Z,50.36
2018-06-07T07:09:13.175Z,50.36
2018-06-07T07:10:23.034Z,50.07
2018-06-07T07:11:32.517Z,50.36
2018-06-07T07:12:41.938Z,50.16
2018-06-07T07:13:51.623Z,50.26
2018-06-07T07:15:00.516Z,50.16
2018-06-07T07:16:09.939Z,50.16
2018-06-07T07:17:18.833Z,50.26
2018-06-07T07:18:27.985Z,50.16
2018-06-07T07:19:37.686Z,50.46
2018-06-07T07:20:47.361Z,50.07
2018-06-07T07:21:56.276Z,50.26
2018-06-07T07:23:06.013Z,50.07
2018-06-07T07:24:16.094Z,50.26
2018-06-07T07:25:25.806Z,50.36
2018-06-07T07:26:35.754Z,50.26
2018-06-07T07:27:45.687Z,50.26
2018-06-07T07:28:54.602Z,50.36
2018-06-07T07:30:04.065Z,50.46
2018-06-07T07:31:12.989Z,50.16
2018-06-07T07:32:22.155Z,50.36
2018-06-07T07:33:31.310Z,50.36
2018-06-07T07:34:40.992Z,50.26
2018-06-07T07:35:50.439Z,50.36
2018-06-07T07:37:00.131Z,50.26
2018-06-07T07:38:09.300Z,50.16
2018-06-07T07:39:18.710Z,50.26
2018-06-07T07:40:27.621Z,50.36
2018-06-07T07:41:37.045Z,50.46
2018-06-07T07:42:46.223Z,50.26
2018-06-07T07:43:55.394Z,50.26
2018-06-07T07:45:04.824Z,50.36
2018-06-07T07:47:23.429Z,50.26
2018-06-07T07:48:33.448Z,50.36
2018-06-07T07:49:42.905Z,50.26
2018-06-07T07:50:52.609Z,50.56
2018-06-07T07:52:02.055Z,50.56
2018-06-07T07:53:11.744Z,50.36
2018-06-07T07:54:21.165Z,50.26
2018-06-07T07:55:30.590Z,50.56
2018-06-07T07:56:39.249Z,50.46
2018-06-07T07:57:48.684Z,50.56
2018-06-07T07:58:57.828Z,50.56
2018-06-07T08:00:07.780Z,50.46
2018-06-07T08:01:17.192Z,50.36
2018-06-07T08:02:26.619Z,50.26
2018-06-07T08:03:36.045Z,50.36
2018-06-07T08:04:44.941Z,50.26
2018-06-07T08:05:54.887Z,50.46
2018-06-07T08:07:04.076Z,50.36
2018-06-07T08:08:13.256Z,50.26
2018-06-07T08:09:22.728Z,50.36
2018-06-07T08:10:32.406Z,50.26
2018-06-07T08:11:42.104Z,50.65
2018-06-07T08:12:51.543Z,50.36
2018-06-07T08:14:00.952Z,50.36
2018-06-07T08:15:10.115Z,50.36
2018-06-07T08:16:19.596Z,50.46
2018-06-07T08:17:29.021Z,50.36
2018-06-07T08:18:38.968Z,50.26
2018-06-07T08:19:48.389Z,50.36
2018-06-07T08:20:57.856Z,50.46
2018-06-07T08:22:07.282Z,50.26
2018-06-07T08:23:17.224Z,50.46
2018-06-07T08:24:26.909Z,50.36
2018-06-07T08:25:36.844Z,50.56
2018-06-07T08:26:46.510Z,50.56
2018-06-07T08:27:55.666Z,50.56
2018-06-07T08:29:04.585Z,50.65
2018-06-07T08:30:14.010Z,50.65
2018-06-07T08:31:23.436Z,50.26
2018-06-07T08:32:32.846Z,50.36
2018-06-07T08:33:41.997Z,50.36
2018-06-07T08:34:51.424Z,50.46
2018-06-07T08:36:00.588Z,50.56
2018-06-07T08:37:10.012Z,50.65
2018-06-07T08:38:19.952Z,50.56
2018-06-07T08:39:29.195Z,50.56
2018-06-07T08:40:38.954Z,50.26
2018-06-07T08:41:48.377Z,50.65
2018-06-07T08:42:58.066Z,50.65
2018-06-07T08:44:06.978Z,50.65
2018-06-07T08:45:16.390Z,50.36
2018-06-07T08:46:26.069Z,50.56
2018-06-07T08:47:35.758Z,50.26
2018-06-07T08:48:45.184Z,50.65
2018-06-07T08:49:54.346Z,50.65
2018-06-07T08:51:03.780Z,50.26
2018-06-07T08:52:13.199Z,50.56
2018-06-07T08:53:22.877Z,50.65
2018-06-07T08:54:32.324Z,50.26
2018-06-07T08:55:41.751Z,50.26
2018-06-07T08:56:50.923Z,50.36
2018-06-07T08:58:00.084Z,50.36
2018-06-07T08:59:09.567Z,50.56
2018-06-07T09:00:19.187Z,50.36
2018-06-07T09:01:28.622Z,50.56
2018-06-07T09:02:37.518Z,50.36
2018-06-07T09:03:46.950Z,50.65
2018-06-07T09:04:56.120Z,50.65
2018-06-07T09:06:05.558Z,50.46
2018-06-07T09:07:14.971Z,50.65
2018-06-07T09:08:24.415Z,50.46
2018-06-07T09:09:33.832Z,50.26
2018-06-07T09:10:43.249Z,50.26
2018-06-07T09:11:52.415Z,50.26
2018-06-07T09:13:01.614Z,50.36
2018-06-07T09:14:10.757Z,50.46
2018-06-07T09:15:20.432Z,50.56
2018-06-07T09:16:29.613Z,50.46
2018-06-07T09:17:39.062Z,50.26
2018-06-07T09:18:49.250Z,50.36
2018-06-07T09:19:58.430Z,50.26
2018-06-07T09:21:07.606Z,50.56
2018-06-07T09:22:16.526Z,50.36
2018-06-07T09:23:25.953Z,50.36
2018-06-07T09:24:35.362Z,50.26
2018-06-07T09:25:44.808Z,50.46
2018-06-07T09:26:53.720Z,50.26
2018-06-07T09:28:02.637Z,50.26
2018-06-07T09:29:11.810Z,50.26
2018-06-07T09:30:21.234Z,50.46
2018-06-07T09:31:30.684Z,50.46
2018-06-07T09:32:40.379Z,50.36
2018-06-07T09:33:49.793Z,50.26
2018-06-07T09:34:58.968Z,50.36
2018-06-07T09:36:07.865Z,50.07
2018-06-07T09:37:17.034Z,50.16
2018-06-07T09:38:26.190Z,50.36
2018-06-07T09:39:35.895Z,50.26
2018-06-07T09:40:45.063Z,50.46
2018-06-07T09:41:55.003Z,50.46
2018-06-07T09:43:04.438Z,50.36
2018-06-07T09:44:13.862Z,50.56
2018-06-07T09:45:23.294Z,50.26
2018-06-07T09:46:32.744Z,50.26
2018-06-07T09:47:41.917Z,50.07
2018-06-07T09:48:51.337Z,50.46
2018-06-07T09:50:01.279Z,50.26
2018-06-07T09:51:10.444Z,50.26
2018-06-07T09:52:19.885Z,50.26
2018-06-07T09:53:29.075Z,50.36
2018-06-07T09:54:38.506Z,50.26
2018-06-07T09:55:47.430Z,50.36
2018-06-07T09:56:57.398Z,50.36
2018-06-07T09:58:07.195Z,50.26
2018-06-07T09:59:17.495Z,50.36
2018-06-07T10:00:26.676Z,50.16
2018-06-07T10:01:36.633Z,50.16
2018-06-07T10:02:46.055Z,50.26
2018-06-07T10:03:55.239Z,50.16
2018-06-07T10:05:04.912Z,50.07
2018-06-07T10:06:14.340Z,50.26
2018-06-07T10:07:23.771Z,50.07
2018-06-07T10:08:32.940Z,50.07
2018-06-07T10:09:42.375Z,50.26
2018-06-07T10:10:52.065Z,50.07
2018-06-07T10:12:01.508Z,50.07
2018-06-07T10:13:10.948Z,50.26
2018-06-07T10:14:20.111Z,50.26
2018-06-07T10:15:29.535Z,50.07
2018-06-07T10:16:38.965Z,50.07
2018-06-07T10:17:47.853Z,50.46
2018-06-07T10:18:57.518Z,50.16
2018-06-07T10:20:06.939Z,50.29
2018-06-07T10:21:16.621Z,50.26
2018-06-07T10:22:26.104Z,50.26
2018-06-07T10:23:35.559Z,50.07
2018-06-07T10:24:44.988Z,50.07
2018-06-07T10:25:54.408Z,50.16
2018-06-07T10:27:03.868Z,50.16
2018-06-07T10:28:13.551Z,50.26
2018-06-07T10:29:23.238Z,50.16
2018-06-07T10:30:32.656Z,50.16
2018-06-07T10:31:42.331Z,50.36
2018-06-07T10:32:51.740Z,50.26
2018-06-07T10:34:00.899Z,50.16
2018-06-07T10:35:10.063Z,50.07
2018-06-07T10:36:19.479Z,50.26
2018-06-07T10:37:28.888Z,50.26
2018-06-07T10:38:38.071Z,50.26
2018-06-07T10:39:47.224Z,50.26
2018-06-07T10:40:56.391Z,50.26
2018-06-07T10:42:05.295Z,50.26
2018-06-07T10:43:14.704Z,50.07
2018-06-07T10:44:24.118Z,50.26
2018-06-07T10:45:32.771Z,50.26
2018-06-07T10:46:41.712Z,50.36
2018-06-07T10:47:50.627Z,50.36
2018-06-07T10:49:00.065Z,50.26
2018-06-07T10:50:09.560Z,50.46
2018-06-07T10:51:19.162Z,50.36
2018-06-07T10:52:28.838Z,50.38
2018-06-07T10:53:38.032Z,50.26
2018-06-07T10:54:47.191Z,50.36
2018-06-07T10:55:56.906Z,50.26
2018-06-07T10:57:06.064Z,50.26
2018-06-07T10:58:15.227Z,50.36
2018-06-07T10:59:24.895Z,50.26
2018-06-07T11:00:33.571Z,50.36
2018-06-07T11:01:42.998Z,50.26
2018-06-07T11:02:52.177Z,50.36
2018-06-07T11:04:01.854Z,50.26
2018-06-07T11:05:11.029Z,50.26
2018-06-07T11:06:20.689Z,50.26
2018-06-07T11:07:29.590Z,50.26
2018-06-07T11:08:39.012Z,50.26
2018-06-07T11:09:47.915Z,50.29
2018-06-07T11:10:57.320Z,50.36
2018-06-07T11:12:06.752Z,50.26
2018-06-07T11:13:15.648Z,50.26
2018-06-07T11:14:24.860Z,50.26
2018-06-07T11:15:34.553Z,50.16
2018-06-07T11:16:44.662Z,50.16
2018-06-07T11:17:54.347Z,50.26
2018-06-07T11:19:03.554Z,50.36
2018-06-07T11:20:12.965Z,50.16
2018-06-07T11:21:22.397Z,50.16
2018-06-07T11:22:31.840Z,50.46
2018-06-07T11:23:41.511Z,50.48
2018-06-07T11:24:53.748Z,50.16
2018-06-07T11:26:03.408Z,50.16
2018-06-07T11:27:12.836Z,50.26
2018-06-07T11:28:22.258Z,50.38
2018-06-07T11:29:31.662Z,50.36
2018-06-07T11:30:41.359Z,50.46
2018-06-07T11:31:50.258Z,50.36
2018-06-07T11:32:59.942Z,50.07
2018-06-07T11:34:09.637Z,50.07
2018-06-07T11:35:19.312Z,50.16
2018-06-07T11:36:28.468Z,50.07
2018-06-07T11:37:37.633Z,50.46
2018-06-07T11:38:47.302Z,50.36
2018-06-07T11:39:56.466Z,50.38
2018-06-07T11:41:05.404Z,50.38
2018-06-07T11:42:14.342Z,50.36
2018-06-07T11:43:24.031Z,50.38
2018-06-07T11:44:33.465Z,50.36
2018-06-07T11:45:42.625Z,50.46
2018-06-07T11:46:52.064Z,50.46
2018-06-07T11:48:01.488Z,50.46
2018-06-07T11:49:10.741Z,50.46
2018-06-07T11:50:20.159Z,50.46
2018-06-07T11:51:29.573Z,50.46
2018-06-07T11:52:39.259Z,50.36
2018-06-07T11:53:48.480Z,50.46
2018-06-07T11:54:58.281Z,50.48
2018-06-07T11:56:07.560Z,50.38
2018-06-07T11:57:16.463Z,50.48
2018-06-07T11:58:25.900Z,50.36
2018-06-07T11:59:35.336Z,50.46
2018-06-07T12:00:45.602Z,50.46
2018-06-07T12:01:55.028Z,50.56
2018-06-07T12:03:04.741Z,50.36
2018-06-07T12:04:14.166Z,50.36
2018-06-07T12:05:22.833Z,50.48
2018-06-07T12:06:32.061Z,50.36
2018-06-07T12:07:41.486Z,50.26
2018-06-07T12:08:50.393Z,50.46
2018-06-07T12:09:59.562Z,50.36
2018-06-07T12:11:08.969Z,50.46
2018-06-07T12:12:18.896Z,50.29
2018-06-07T12:13:28.692Z,50.29
2018-06-07T12:14:38.398Z,50.26
2018-06-07T12:15:47.870Z,50.46
2018-06-07T12:16:57.032Z,50.46
2018-06-07T12:18:06.481Z,50.48
2018-06-07T12:19:15.654Z,50.36
2018-06-07T12:20:25.591Z,50.29
2018-06-07T12:21:34.488Z,50.46
2018-06-07T12:22:44.154Z,50.46
2018-06-07T12:23:53.340Z,50.46
2018-06-07T12:25:03.019Z,50.26
2018-06-07T12:26:12.963Z,50.46
2018-06-07T12:27:22.404Z,50.46
2018-06-07T12:28:31.819Z,50.46
2018-06-07T12:29:41.504Z,50.46
2018-06-07T12:30:50.686Z,50.36
2018-06-07T12:32:00.282Z,50.36
2018-06-07T12:33:09.837Z,50.46
2018-06-07T12:34:19.056Z,50.36
2018-06-07T12:35:28.230Z,50.36
2018-06-07T12:36:37.655Z,50.48
2018-06-07T12:37:47.076Z,50.46
2018-06-07T12:38:55.979Z,50.48
2018-06-07T12:40:05.142Z,50.26
2018-06-07T12:41:15.514Z,50.36
2018-06-07T12:42:24.417Z,50.48
2018-06-07T12:43:33.322Z,50.38
2018-06-07T12:44:42.767Z,50.38
2018-06-07T12:45:51.941Z,50.48
2018-06-07T12:47:02.093Z,50.36
2018-06-07T12:48:12.266Z,50.19
2018-06-07T12:49:21.693Z,50.29
2018-06-07T12:50:31.095Z,50.29
2018-06-07T12:51:39.992Z,50.19
2018-06-07T12:52:49.449Z,50.29
2018-06-07T12:53:58.866Z,50.38
2018-06-07T12:55:08.408Z,50.16
2018-06-07T12:56:18.280Z,50.19
2018-06-07T12:57:28.236Z,50.19
2018-06-07T12:58:37.660Z,50.29
2018-06-07T12:59:46.824Z,50.38
2018-06-07T13:00:55.994Z,50.19
2018-06-07T13:02:05.683Z,50.48
2018-06-07T13:03:15.206Z,50.29
2018-06-07T13:04:25.139Z,50.58
2018-06-07T13:05:34.563Z,50.29
2018-06-07T13:06:44.495Z,50.48
2018-06-07T13:07:54.860Z,50.29
2018-06-07T13:09:04.016Z,50.48
2018-06-07T13:10:12.940Z,50.68
2018-06-07T13:11:22.494Z,50.48
2018-06-07T13:12:31.916Z,50.38
2018-06-07T13:13:41.860Z,49.99
2018-06-07T13:14:51.023Z,50.48
2018-06-07T13:16:00.457Z,50.58
2018-06-07T13:17:09.620Z,50.09
2018-06-07T13:18:19.297Z,50.48
2018-06-07T13:19:28.464Z,49.99
2018-06-07T13:20:37.930Z,50.19
2018-06-07T13:21:47.101Z,50.29
2018-06-07T13:22:56.275Z,49.9
2018-06-07T13:24:05.965Z,50.38
2018-06-07T13:25:15.417Z,50.09
2018-06-07T13:26:25.108Z,50.09
2018-06-07T13:27:34.311Z,50.09
2018-06-07T13:28:43.576Z,49.99
2018-06-07T13:29:53.459Z,49.71
2018-06-07T13:31:03.140Z,49.8
2018-06-07T13:32:12.310Z,49.8
2018-06-07T13:33:21.749Z,49.9
2018-06-07T13:34:31.427Z,50.09
2018-06-07T13:35:41.104Z,50.19
2018-06-07T13:36:50.536Z,50.19
2018-06-07T13:37:59.964Z,50.29
2018-06-07T13:39:09.413Z,50.29
2018-06-07T13:40:19.189Z,50.19
2018-06-07T13:41:28.432Z,50.29
2018-06-07T13:42:38.118Z,50.19
2018-06-07T13:43:47.273Z,50.38
2018-06-07T13:44:56.460Z,50.29
2018-06-07T13:46:05.905Z,50.19
2018-06-07T13:47:15.057Z,50.09
2018-06-07T13:48:24.733Z,50.09
2018-06-07T13:49:34.177Z,49.9
2018-06-07T13:50:44.053Z,49.99
2018-06-07T13:51:53.399Z,49.71
2018-06-07T13:53:03.132Z,49.71
2018-06-07T13:54:12.296Z,49.71
2018-06-07T13:55:21.478Z,49.71
2018-06-07T13:56:31.147Z,49.61
2018-06-07T13:57:40.315Z,49.71
2018-06-07T13:58:49.753Z,49.9
2018-06-07T13:59:58.933Z,49.61
2018-06-07T14:01:08.367Z,49.51
2018-06-07T14:02:17.264Z,49.8
2018-06-07T14:03:26.418Z,49.9
2018-06-07T14:04:35.609Z,49.9
2018-06-07T14:05:45.344Z,49.92
2018-06-07T14:06:54.518Z,49.92
2018-06-07T14:08:03.430Z,49.54
2018-06-07T14:09:12.346Z,49.8
2018-06-07T14:10:22.270Z,49.71
2018-06-07T14:11:32.105Z,49.71
2018-06-07T14:12:41.535Z,49.8
2018-06-07T14:13:51.475Z,49.92
2018-06-07T14:15:00.411Z,49.92
2018-06-07T14:16:10.348Z,50.02
2018-06-07T14:17:20.176Z,49.82
2018-06-07T14:18:29.944Z,49.92
2018-06-07T14:19:39.629Z,49.92
2018-06-07T14:20:48.802Z,49.92
2018-06-07T14:21:58.507Z,49.9
2018-06-07T14:23:07.935Z,50.02
2018-06-07T14:24:17.110Z,49.54
2018-06-07T14:25:26.065Z,49.51
2018-06-07T14:26:35.500Z,49.54
2018-06-07T14:27:45.204Z,49.82
2018-06-07T14:28:54.402Z,49.92
2018-06-07T14:30:03.838Z,49.92
2018-06-07T14:31:13.007Z,49.82
2018-06-07T14:32:22.691Z,49.92
2018-06-07T14:33:32.657Z,49.92
2018-06-07T14:34:42.359Z,49.82
2018-06-07T14:35:51.771Z,49.99
2018-06-07T14:37:01.201Z,49.99
2018-06-07T14:38:10.631Z,49.92
2018-06-07T14:39:20.059Z,49.92
2018-06-07T14:40:29.237Z,49.9
2018-06-07T14:41:38.935Z,49.92
2018-06-07T14:42:48.620Z,49.92
2018-06-07T14:43:58.044Z,49.9
2018-06-07T14:45:07.493Z,49.82
2018-06-07T14:46:16.947Z,49.71
2018-06-07T14:47:26.869Z,49.82
2018-06-07T14:48:36.302Z,49.61
2018-06-07T14:49:46.011Z,49.82
2018-06-07T14:50:55.706Z,49.71
2018-06-07T14:52:04.868Z,49.61
2018-06-07T14:53:14.035Z,49.51
2018-06-07T14:54:23.460Z,49.61
2018-06-07T14:55:32.995Z,49.73
2018-06-07T14:56:42.408Z,49.73
2018-06-07T14:57:51.592Z,49.73